createdAt,value
2022-11-16T00:01:25.924Z,99478.88
2022-11-16T00:03:53.133Z,99477.63
2022-11-16T00:06:20.211Z,99473.22
2022-11-16T00:09:10.999Z,99472.84
2022-11-16T00:11:37.883Z,99472.63
2022-11-16T00:14:05.237Z,99470.81
2022-11-16T00:16:32.187Z,99470.81
2022-11-16T00:19:00.243Z,99458.34
2022-11-16T00:21:26.977Z,99466.78
2022-11-16T00:23:53.804Z,99458.56
2022-11-16T00:26:20.961Z,99456.34
2022-11-16T00:28:47.818Z,99453.13
2022-11-16T00:31:14.768Z,99453.94
2022-11-16T00:33:41.201Z,99455.16
2022-11-16T00:36:09.795Z,99458.78
2022-11-16T00:38:36.622Z,99447.34
2022-11-16T00:41:04.696Z,99448.34
2022-11-16T00:43:31.103Z,99453.56
2022-11-16T00:45:57.574Z,99451.91
2022-11-16T00:48:23.956Z,99451.13
2022-11-16T00:50:50.319Z,99448.13
2022-11-16T00:53:17.606Z,99451.13
2022-11-16T00:55:44.882Z,99448.34
2022-11-16T00:58:12.820Z,99452.34
2022-11-16T01:00:41.153Z,99447.31
2022-11-16T01:03:07.899Z,99444.28
2022-11-16T01:05:34.410Z,99437.09
2022-11-16T01:08:00.816Z,99450.50
2022-11-16T01:10:27.675Z,99449.50
2022-11-16T01:12:54.797Z,99440.50
2022-11-16T01:15:22.284Z,99442.91
2022-11-16T01:17:48.885Z,99442.72
2022-11-16T01:20:16.409Z,99439.88
2022-11-16T01:22:43.337Z,99447.69
2022-11-16T01:25:10.557Z,99434.88
2022-11-16T01:27:37.515Z,99445.09
2022-11-16T01:30:07.457Z,99449.50
2022-11-16T01:32:36.792Z,99449.94
2022-11-16T01:35:05.026Z,99455.53
2022-11-16T01:37:33.600Z,99459.94
2022-11-16T01:40:00.592Z,99455.72
2022-11-16T01:42:28.719Z,99454.94
2022-11-16T01:44:58.165Z,99442.31
2022-11-16T01:47:24.846Z,99447.91
2022-11-16T01:49:54.712Z,99444.69
2022-11-16T01:52:29.080Z,99450.09
2022-11-16T01:54:56.145Z,99442.28
2022-11-16T01:57:27.171Z,99439.50
2022-11-16T02:00:03.670Z,99432.47
2022-11-16T02:02:39.953Z,99429.06
2022-11-16T02:05:11.458Z,99423.84
2022-11-16T02:08:31.615Z,99422.22
2022-11-16T02:11:07.044Z,99417.41
2022-11-16T02:13:41.929Z,99413.97
2022-11-16T02:16:20.755Z,99422.63
2022-11-16T02:18:59.845Z,99421.00
2022-11-16T02:21:44.838Z,99429.22
2022-11-16T02:24:19.435Z,99424.44
2022-11-16T02:26:51.904Z,99420.41
2022-11-16T02:29:51.092Z,99414.78
2022-11-16T02:32:23.450Z,99417.00
2022-11-16T02:34:56.970Z,99411.16
2022-11-16T02:37:25.196Z,99406.38
2022-11-16T02:39:57.468Z,99396.09
2022-11-16T02:42:27.728Z,99383.28
2022-11-16T02:44:57.963Z,99387.69
2022-11-16T02:47:26.685Z,99387.31
2022-11-16T02:49:57.796Z,99394.91
2022-11-16T02:52:26.217Z,99395.13
2022-11-16T02:54:52.668Z,99387.31
2022-11-16T02:57:28.274Z,99375.66
2022-11-16T02:59:56.807Z,99384.88
2022-11-16T03:02:25.328Z,99383.06
2022-11-16T03:05:18.066Z,99378.47
2022-11-16T03:07:54.895Z,99375.25
2022-11-16T03:10:40.463Z,99375.44
2022-11-16T03:13:10.646Z,99373.44
2022-11-16T03:15:38.452Z,99369.63
2022-11-16T03:18:06.404Z,99375.25
2022-11-16T03:20:34.422Z,99378.47
2022-11-16T03:23:02.912Z,99385.50
2022-11-16T03:25:30.868Z,99387.69
2022-11-16T03:28:13.465Z,99395.13
2022-11-16T03:31:00.891Z,99393.72
2022-11-16T03:33:34.991Z,99396.75
2022-11-16T03:36:12.958Z,99393.91
2022-11-16T03:38:40.604Z,99403.75
2022-11-16T03:41:08.935Z,99410.00
2022-11-16T03:43:36.865Z,99412.97
2022-11-16T03:46:04.733Z,99409.78
2022-11-16T03:48:35.843Z,99416.19
2022-11-16T03:51:06.378Z,99416.38
2022-11-16T03:53:32.908Z,99425.44
2022-11-16T03:55:59.673Z,99423.00
2022-11-16T03:58:27.178Z,99418.63
2022-11-16T04:00:55.515Z,99421.81
2022-11-16T04:03:22.006Z,99428.06
2022-11-16T04:06:07.959Z,99422.03
2022-11-16T04:08:54.519Z,99423.84
2022-11-16T04:11:41.194Z,99425.63
2022-11-16T04:14:35.874Z,99426.22
2022-11-16T04:17:23.018Z,99431.25
2022-11-16T04:20:08.187Z,99448.31
2022-11-16T04:22:55.951Z,99443.84
2022-11-16T04:25:24.722Z,99449.91
2022-11-16T04:28:10.608Z,99453.13
2022-11-16T04:30:56.165Z,99447.91
2022-11-16T04:33:41.321Z,99456.16
2022-11-16T04:36:26.514Z,99440.88
2022-11-16T04:38:52.941Z,99449.50
2022-11-16T04:41:38.203Z,99440.28
2022-11-16T04:44:04.773Z,99429.84
2022-11-16T04:46:50.026Z,99443.47
2022-11-16T04:49:16.731Z,99448.28
2022-11-16T04:51:43.532Z,99441.44
2022-11-16T04:54:09.960Z,99450.72
2022-11-16T04:56:37.591Z,99460.34
2022-11-16T04:59:03.951Z,99454.50
2022-11-16T05:01:49.179Z,99456.09
2022-11-16T05:04:15.711Z,99457.31
2022-11-16T05:06:42.876Z,99457.50
2022-11-16T05:09:09.617Z,99457.09
2022-11-16T05:11:36.101Z,99452.06
2022-11-16T05:14:02.857Z,99460.69
2022-11-16T05:16:29.603Z,99458.53
2022-11-16T05:19:14.892Z,99466.34
2022-11-16T05:21:41.750Z,99458.28
2022-11-16T05:24:28.495Z,99467.31
2022-11-16T05:26:54.924Z,99462.91
2022-11-16T05:29:22.625Z,99476.94
2022-11-16T05:31:49.732Z,99473.53
2022-11-16T05:34:16.807Z,99477.34
2022-11-16T05:36:43.219Z,99473.75
2022-11-16T05:39:10.648Z,99477.16
2022-11-16T05:41:39.018Z,99477.56
2022-11-16T05:44:06.238Z,99483.59
2022-11-16T05:46:32.995Z,99482.78
2022-11-16T05:49:00.753Z,99486.00
2022-11-16T05:51:27.219Z,99483.19
2022-11-16T05:53:54.935Z,99488.84
2022-11-16T05:56:22.794Z,99496.88
2022-11-16T05:58:51.173Z,99492.63
2022-11-16T06:01:17.748Z,99486.00
2022-11-16T06:03:44.184Z,99492.59
2022-11-16T06:06:11.272Z,99496.81
2022-11-16T06:08:37.904Z,99501.66
2022-11-16T06:11:09.306Z,99504.25
2022-11-16T06:13:36.854Z,99511.47
2022-11-16T06:16:03.848Z,99510.25
2022-11-16T06:18:31.779Z,99512.84
2022-11-16T06:20:58.479Z,99510.59
2022-11-16T06:23:25.531Z,99510.84
2022-11-16T06:25:56.527Z,99521.66
2022-11-16T06:28:25.613Z,99526.22
2022-11-16T06:30:52.073Z,99531.06
2022-11-16T06:33:18.993Z,99532.91
2022-11-16T06:35:45.690Z,99533.81
2022-11-16T06:38:20.151Z,99536.38
2022-11-16T06:40:56.069Z,99549.03
2022-11-16T06:43:25.381Z,99555.81
2022-11-16T06:45:52.716Z,99557.59
2022-11-16T06:48:19.580Z,99559.00
2022-11-16T06:50:51.789Z,99562.91
2022-11-16T06:53:23.491Z,99575.41
2022-11-16T06:55:52.505Z,99568.41
2022-11-16T06:58:19.416Z,99565.78
2022-11-16T07:00:46.360Z,99568.41
2022-11-16T07:03:15.004Z,99574.00
2022-11-16T07:05:42.608Z,99573.56
2022-11-16T07:08:13.391Z,99581.19
2022-11-16T07:10:39.785Z,99576.31
2022-11-16T07:13:07.306Z,99585.22
2022-11-16T07:15:36.652Z,99584.09
2022-11-16T07:18:06.766Z,99585.50
2022-11-16T07:20:37.467Z,99588.72
2022-11-16T07:23:03.928Z,99595.72
2022-11-16T07:25:33.222Z,99598.09
2022-11-16T07:28:00.862Z,99601.94
2022-11-16T07:30:27.767Z,99609.97
2022-11-16T07:33:03.737Z,99610.97
2022-11-16T07:35:48.550Z,99616.34
2022-11-16T07:38:18.179Z,99612.28
2022-11-16T07:40:45.698Z,99613.06
2022-11-16T07:43:15.297Z,99636.31
2022-11-16T07:49:09.859Z,99628.50
2022-11-16T07:51:49.311Z,99632.31
2022-11-16T07:54:34.625Z,99643.34
2022-11-16T07:57:01.414Z,99635.50
2022-11-16T07:59:28.454Z,99637.72
2022-11-16T08:01:55.761Z,99641.13
2022-11-16T08:04:22.536Z,99643.88
2022-11-16T08:06:51.624Z,99641.88
2022-11-16T08:09:19.406Z,99642.59
2022-11-16T08:11:47.048Z,99640.63
2022-11-16T08:14:13.912Z,99639.88
2022-11-16T08:16:40.310Z,99648.63
2022-11-16T08:19:12.206Z,99655.25
2022-11-16T08:21:38.602Z,99669.25
2022-11-16T08:24:06.275Z,99660.59
2022-11-16T08:26:36.186Z,99675.75
2022-11-16T08:29:08.272Z,99666.78
2022-11-16T08:31:38.424Z,99674.97
2022-11-16T08:34:12.064Z,99672.34
2022-11-16T08:36:41.967Z,99682.31
2022-11-16T08:39:08.616Z,99678.91
2022-11-16T08:41:37.506Z,99679.97
2022-11-16T08:44:05.914Z,99677.69
2022-11-16T08:46:35.551Z,99684.56
2022-11-16T08:49:12.622Z,99682.59
2022-11-16T08:51:39.112Z,99687.78
2022-11-16T08:54:06.255Z,99701.44
2022-11-16T08:56:35.477Z,99688.78
2022-11-16T08:59:02.920Z,99693.38
2022-11-16T09:01:30.379Z,99693.00
2022-11-16T09:03:56.873Z,99704.59
2022-11-16T09:06:24.012Z,99702.44
2022-11-16T09:08:51.051Z,99707.66
2022-11-16T09:11:18.691Z,99710.13
2022-11-16T09:13:45.965Z,99710.31
2022-11-16T09:16:15.787Z,99706.28
2022-11-16T09:18:42.739Z,99715.91
2022-11-16T09:21:09.208Z,99707.53
2022-11-16T09:23:35.558Z,99703.06
2022-11-16T09:26:05.915Z,99707.00
2022-11-16T09:28:32.746Z,99703.66
2022-11-16T09:31:01.829Z,99706.72
2022-11-16T09:33:29.116Z,99701.56
2022-11-16T09:35:56.383Z,99700.84
2022-11-16T09:38:40.544Z,99707.69
2022-11-16T09:41:26.283Z,99706.75
2022-11-16T09:44:03.617Z,99708.16
2022-11-16T09:46:34.602Z,99703.94
2022-11-16T09:49:02.779Z,99714.00
2022-11-16T09:51:32.471Z,99713.34
2022-11-16T09:54:02.721Z,99711.84
2022-11-16T09:56:31.085Z,99713.91
2022-11-16T09:59:17.808Z,99718.34
2022-11-16T10:01:50.767Z,99718.41
2022-11-16T10:04:20.153Z,99717.03
2022-11-16T10:06:49.736Z,99716.41
2022-11-16T10:09:16.514Z,99714.03
2022-11-16T10:11:58.917Z,99713.19
2022-11-16T10:14:28.045Z,99716.28
2022-11-16T10:17:06.481Z,99711.25
2022-11-16T10:19:53.180Z,99717.69
2022-11-16T10:22:25.897Z,99709.84
2022-11-16T10:24:53.630Z,99715.91
2022-11-16T10:27:38.938Z,99709.03
2022-11-16T10:30:10.097Z,99718.19
2022-11-16T10:32:39.388Z,99705.94
2022-11-16T10:35:11.742Z,99713.38
2022-11-16T10:37:40.944Z,99711.81
2022-11-16T10:40:27.473Z,99701.81
2022-11-16T10:43:00.038Z,99701.59
2022-11-16T10:45:39.107Z,99699.28
2022-11-16T10:48:05.604Z,99700.19
2022-11-16T10:50:32.439Z,99697.41
2022-11-16T10:52:59.502Z,99692.47
2022-11-16T10:55:25.969Z,99692.41
2022-11-16T10:58:02.670Z,99689.78
2022-11-16T11:00:44.269Z,99689.41
2022-11-16T11:03:11.833Z,99685.44
2022-11-16T11:05:47.195Z,99686.09
2022-11-16T11:08:23.831Z,99683.84
2022-11-16T11:10:57.473Z,99682.69
2022-11-16T11:13:26.480Z,99679.22
2022-11-16T11:16:12.350Z,99678.59
2022-11-16T11:18:38.721Z,99676.78
2022-11-16T11:21:06.785Z,99671.38
2022-11-16T11:23:47.581Z,99667.78
2022-11-16T11:26:25.830Z,99652.94
2022-11-16T11:28:52.298Z,99661.16
2022-11-16T11:31:45.086Z,99653.53
2022-11-16T11:34:26.080Z,99648.97
2022-11-16T11:36:58.106Z,99644.34
2022-11-16T11:39:24.503Z,99637.50
2022-11-16T11:42:18.559Z,99639.31
2022-11-16T11:45:03.588Z,99631.06
2022-11-16T11:47:59.659Z,99632.28
2022-11-16T11:50:32.710Z,99631.88
2022-11-16T11:53:05.857Z,99628.22
2022-11-16T11:55:32.217Z,99624.44
2022-11-16T11:57:59.372Z,99626.63
2022-11-16T12:00:26.151Z,99626.84
2022-11-16T12:03:23.898Z,99622.84
2022-11-16T12:05:50.260Z,99623.81
2022-11-16T12:08:28.622Z,99624.81
2022-11-16T12:11:04.212Z,99607.97
2022-11-16T12:13:30.702Z,99605.16
2022-11-16T12:16:11.807Z,99603.97
2022-11-16T12:18:57.013Z,99602.94
2022-11-16T12:21:26.459Z,99605.34
2022-11-16T12:23:52.831Z,99602.16
2022-11-16T12:26:54.842Z,99587.66
2022-11-16T12:29:24.486Z,99588.88
2022-11-16T12:31:50.851Z,99586.88
2022-11-16T12:34:32.573Z,99587.25
2022-11-16T12:36:58.929Z,99588.47
2022-11-16T12:39:35.643Z,99585.47
2022-11-16T12:42:14.025Z,99585.47
2022-11-16T12:44:55.937Z,99587.28
2022-11-16T12:47:23.305Z,99584.25
2022-11-16T12:50:08.527Z,99580.41
2022-11-16T12:52:58.216Z,99580.03
2022-11-16T12:55:36.838Z,99583.66
2022-11-16T12:58:06.390Z,99578.81
2022-11-16T13:00:39.274Z,99580.03
2022-11-16T13:03:14.699Z,99581.63
2022-11-16T13:05:47.227Z,99567.34
2022-11-16T13:08:32.277Z,99565.38
2022-11-16T13:11:09.512Z,99570.97
2022-11-16T13:13:37.324Z,99568.19
2022-11-16T13:16:05.310Z,99557.72
2022-11-16T13:18:33.174Z,99562.13
2022-11-16T13:21:11.444Z,99551.28
2022-11-16T13:23:49.604Z,99552.47
2022-11-16T13:26:19.005Z,99550.69
2022-11-16T13:28:45.340Z,99542.03
2022-11-16T13:31:19.758Z,99542.84
2022-11-16T13:33:51.361Z,99532.59
2022-11-16T13:36:43.260Z,99528.38
2022-11-16T13:39:11.123Z,99535.38
2022-11-16T13:41:38.596Z,99533.78
2022-11-16T13:44:11.172Z,99532.78
2022-11-16T13:46:55.874Z,99527.16
2022-11-16T13:49:25.896Z,99523.53
2022-11-16T13:52:03.428Z,99520.94
2022-11-16T13:54:48.282Z,99517.31
2022-11-16T13:57:24.082Z,99506.84
2022-11-16T13:59:55.923Z,99510.66
2022-11-16T14:02:33.397Z,99516.31
2022-11-16T14:05:00.921Z,99507.47
2022-11-16T14:07:32.431Z,99502.44
2022-11-16T14:09:59.293Z,99508.69
2022-11-16T14:12:52.819Z,99511.47
2022-11-16T14:15:25.275Z,99514.50
2022-11-16T14:17:59.944Z,99511.69
2022-11-16T14:20:39.304Z,99507.06
2022-11-16T14:23:11.391Z,99512.28
2022-11-16T14:25:40.685Z,99508.66
2022-11-16T14:28:07.027Z,99513.50
2022-11-16T14:31:02.970Z,99508.66
2022-11-16T14:33:34.121Z,99505.47
2022-11-16T14:36:03.422Z,99510.09
2022-11-16T14:38:34.127Z,99511.06
2022-11-16T14:41:05.732Z,99502.25
2022-11-16T14:43:32.438Z,99500.81
2022-11-16T14:46:04.213Z,99498.22
2022-11-16T14:48:30.766Z,99493.63
2022-11-16T14:51:06.111Z,99494.81
2022-11-16T14:53:35.145Z,99498.22
2022-11-16T14:56:05.501Z,99491.19
2022-11-16T14:58:31.928Z,99485.38
2022-11-16T15:01:03.420Z,99484.72
2022-11-16T15:03:33.183Z,99480.94
2022-11-16T15:06:00.724Z,99480.72
2022-11-16T15:08:32.576Z,99480.50
2022-11-16T15:10:59.468Z,99475.28
2022-11-16T15:13:25.985Z,99481.28
2022-11-16T15:16:08.963Z,99484.13
2022-11-16T15:18:35.624Z,99479.88
2022-11-16T15:21:02.058Z,99464.56
2022-11-16T15:23:30.759Z,99462.78
2022-11-16T15:25:59.314Z,99464.34
2022-11-16T15:28:27.085Z,99463.19
2022-11-16T15:30:54.951Z,99472.41
2022-11-16T15:33:24.133Z,99469.94
2022-11-16T15:35:50.887Z,99478.19
2022-11-16T15:38:17.226Z,99462.31
2022-11-16T15:40:49.288Z,99451.66
2022-11-16T15:43:15.743Z,99447.06
2022-11-16T15:45:42.617Z,99454.09
2022-11-16T15:48:19.978Z,99449.47
2022-11-16T15:51:05.772Z,99439.25
2022-11-16T15:53:37.521Z,99434.97
2022-11-16T15:56:05.962Z,99435.00
2022-11-16T15:58:36.167Z,99417.16
2022-11-16T16:01:02.937Z,99419.97
2022-11-16T16:03:31.772Z,99431.19
2022-11-16T16:05:58.479Z,99424.97
2022-11-16T16:08:29.841Z,99425.19
2022-11-16T16:11:04.010Z,99420.09
2022-11-16T16:13:38.264Z,99411.72
2022-11-16T16:16:17.042Z,99420.97
2022-11-16T16:18:44.604Z,99418.28
2022-11-16T16:21:12.522Z,99425.16
2022-11-16T16:23:52.133Z,99422.56
2022-11-16T16:26:18.493Z,99421.94
2022-11-16T16:28:45.455Z,99406.47
2022-11-16T16:31:12.172Z,99410.47
2022-11-16T16:33:38.770Z,99413.47
2022-11-16T16:36:05.722Z,99402.03
2022-11-16T16:38:32.094Z,99402.03
2022-11-16T16:41:02.592Z,99395.00
2022-11-16T16:43:29.305Z,99397.41
2022-11-16T16:45:55.991Z,99392.38
2022-11-16T16:48:22.576Z,99395.38
2022-11-16T16:50:49.029Z,99393.75
2022-11-16T16:53:15.466Z,99383.53
2022-11-16T16:55:42.732Z,99392.53
2022-11-16T16:58:12.546Z,99384.13
2022-11-16T17:00:39.353Z,99385.88
2022-11-16T17:03:05.765Z,99387.88
2022-11-16T17:05:35.276Z,99377.84
2022-11-16T17:08:01.697Z,99381.97
2022-11-16T17:10:28.214Z,99384.56
2022-11-16T17:12:58.034Z,99377.81
2022-11-16T17:15:24.565Z,99373.34
2022-11-16T17:17:51.077Z,99373.34
2022-11-16T17:20:17.594Z,99374.53
2022-11-16T17:22:43.982Z,99372.44
2022-11-16T17:25:10.589Z,99368.66
2022-11-16T17:27:36.993Z,99363.69
2022-11-16T17:30:03.787Z,99362.19
2022-11-16T17:32:30.181Z,99357.03
2022-11-16T17:34:56.652Z,99360.66
2022-11-16T17:37:23.016Z,99364.47
2022-11-16T17:39:49.374Z,99359.09
2022-11-16T17:42:15.741Z,99358.88
2022-11-16T17:44:42.093Z,99352.22
2022-11-16T17:47:09.060Z,99351.47
2022-11-16T17:49:35.437Z,99351.03
2022-11-16T17:52:02.181Z,99353.06
2022-11-16T17:54:28.514Z,99341.19
2022-11-16T17:56:54.874Z,99335.00
2022-11-16T17:59:24.960Z,99337.25
2022-11-16T18:01:54.425Z,99330.22
2022-11-16T18:04:20.767Z,99321.44
2022-11-16T18:06:47.143Z,99326.63
2022-11-16T18:09:13.506Z,99318.25
2022-11-16T18:11:39.947Z,99315.22
2022-11-16T18:14:06.364Z,99312.97
2022-11-16T18:16:33.265Z,99315.78
2022-11-16T18:19:01.075Z,99323.84
2022-11-16T18:21:27.944Z,99323.25
2022-11-16T18:23:54.344Z,99318.63
2022-11-16T18:26:21.620Z,99311.63
2022-11-16T18:28:48.351Z,99314.81
2022-11-16T18:31:16.173Z,99314.44
2022-11-16T18:33:43.062Z,99318.13
2022-11-16T18:36:09.787Z,99317.66
2022-11-16T18:38:39.183Z,99317.97
2022-11-16T18:41:06.774Z,99320.44
2022-11-16T18:43:36.663Z,99321.81
2022-11-16T18:46:03.621Z,99331.78
2022-11-16T18:48:30.061Z,99321.47
2022-11-16T18:51:03.800Z,99314.81
2022-11-16T18:53:31.055Z,99318.16
2022-11-16T18:55:58.379Z,99311.31
2022-11-16T18:58:49.413Z,99317.00
2022-11-16T19:01:13.466Z,99306.81
2022-11-16T19:03:40.121Z,99308.16
2022-11-16T19:06:07.672Z,99303.91
2022-11-16T19:08:34.762Z,99295.84
2022-11-16T19:11:05.306Z,99300.09
2022-11-16T19:13:32.155Z,99297.66
2022-11-16T19:15:58.777Z,99298.13
2022-11-16T19:18:25.403Z,99301.97
2022-11-16T19:20:51.939Z,99297.38
2022-11-16T19:23:18.379Z,99286.72
2022-11-16T19:25:45.823Z,99286.81
2022-11-16T19:28:12.196Z,99270.06
2022-11-16T19:30:38.590Z,99274.41
2022-11-16T19:33:05.003Z,99270.63
2022-11-16T19:35:31.365Z,99278.78
2022-11-16T19:37:58.192Z,99277.38
2022-11-16T19:40:25.301Z,99264.53
2022-11-16T19:42:52.822Z,99265.03
2022-11-16T19:45:19.183Z,99261.81
2022-11-16T19:47:45.526Z,99260.16
2022-11-16T19:50:11.919Z,99261.13
2022-11-16T19:52:38.289Z,99250.72
2022-11-16T19:55:04.888Z,99250.69
2022-11-16T19:57:31.290Z,99240.34
2022-11-16T19:59:57.664Z,99242.34
2022-11-16T20:02:24.080Z,99233.50
2022-11-16T20:04:50.480Z,99235.94
2022-11-16T20:07:18.122Z,99222.09
2022-11-16T20:09:46.343Z,99220.13
2022-11-16T20:12:15.718Z,99212.88
2022-11-16T20:14:42.488Z,99213.09
2022-11-16T20:17:08.979Z,99201.47
2022-11-16T20:19:35.404Z,99195.47
2022-11-16T20:22:01.875Z,99188.66
2022-11-16T20:24:28.268Z,99187.84
2022-11-16T20:26:54.627Z,99187.06
2022-11-16T20:29:21.109Z,99167.44
2022-11-16T20:31:47.611Z,99172.63
2022-11-16T20:34:15.342Z,99170.84
2022-11-16T20:36:43.584Z,99171.81
2022-11-16T20:39:13.968Z,99169.41
2022-11-16T20:41:40.353Z,99161.81
2022-11-16T20:44:09.530Z,99155.59
2022-11-16T20:46:40.385Z,99164.19
2022-11-16T20:49:06.831Z,99160.16
2022-11-16T20:51:33.243Z,99155.78
2022-11-16T20:53:59.722Z,99159.78
2022-11-16T20:56:27.011Z,99149.97
2022-11-16T20:58:53.399Z,99143.34
2022-11-16T21:01:31.881Z,99144.16
2022-11-16T21:03:59.880Z,99136.13
2022-11-16T21:06:27.089Z,99141.75
2022-11-16T21:08:54.103Z,99132.56
2022-11-16T21:11:22.585Z,99134.53
2022-11-16T21:14:07.379Z,99121.91
2022-11-16T21:16:34.294Z,99116.91
2022-11-16T21:19:01.238Z,99109.88
2022-11-16T21:21:27.893Z,99103.09
2022-11-16T21:23:54.998Z,99103.09
2022-11-16T21:26:25.610Z,99100.28
2022-11-16T21:28:52.574Z,99096.25
2022-11-16T21:31:20.553Z,99085.03
2022-11-16T21:33:49.679Z,99085.84
2022-11-16T21:36:17.482Z,99069.19
2022-11-16T21:38:44.406Z,99071.63
2022-11-16T21:41:11.748Z,99057.19
2022-11-16T21:43:40.249Z,99063.19
2022-11-16T21:46:10.910Z,99056.81
2022-11-16T21:48:37.618Z,99050.38
2022-11-16T21:51:08.015Z,99040.53
2022-11-16T21:53:34.952Z,99041.97
2022-11-16T21:56:02.103Z,99036.16
2022-11-16T21:58:28.708Z,99029.13
2022-11-16T22:00:59.425Z,99019.50
2022-11-16T22:03:27.934Z,99019.72
2022-11-16T22:06:13.615Z,99017.31
2022-11-16T22:08:40.441Z,99008.31
2022-11-16T22:11:07.894Z,99006.69
2022-11-16T22:13:34.956Z,99001.47
2022-11-16T22:16:08.426Z,99002.66
2022-11-16T22:18:35.128Z,99001.47
2022-11-16T22:21:01.938Z,98993.22
2022-11-16T22:23:29.048Z,98991.06
2022-11-16T22:25:59.813Z,98992.47
2022-11-16T22:28:26.340Z,98986.03
2022-11-16T22:31:02.676Z,98980.44
2022-11-16T22:33:29.468Z,98973.06
2022-11-16T22:35:56.095Z,98968.44
2022-11-16T22:38:22.781Z,98960.44
2022-11-16T22:40:50.589Z,98948.81
2022-11-16T22:43:17.284Z,98942.38
2022-11-16T22:45:43.632Z,98934.75
2022-11-16T22:48:09.993Z,98929.38
2022-11-16T22:50:36.353Z,98918.75
2022-11-16T22:53:02.729Z,98915.97
2022-11-16T22:55:29.077Z,98911.16
2022-11-16T22:57:55.493Z,98899.94
2022-11-16T23:00:21.955Z,98898.94
2022-11-16T23:02:48.399Z,98888.94
2022-11-16T23:05:14.780Z,98888.72
2022-11-16T23:07:43.774Z,98881.69
2022-11-16T23:10:10.399Z,98876.31
2022-11-16T23:12:55.141Z,98864.91
2022-11-16T23:15:48.707Z,98861.31
2022-11-16T23:18:15.214Z,98853.50
2022-11-16T23:21:14.101Z,98843.28
2022-11-16T23:23:58.924Z,98841.47
2022-11-16T23:26:43.774Z,98833.63
2022-11-16T23:29:10.686Z,98824.84
2022-11-16T23:31:37.683Z,98824.03
2022-11-16T23:34:04.417Z,98816.03
2022-11-16T23:36:30.861Z,98813.00
2022-11-16T23:38:57.274Z,98799.38
2022-11-16T23:41:42.490Z,98793.41
2022-11-16T23:44:08.878Z,98777.34
2022-11-16T23:46:35.238Z,98773.16
2022-11-16T23:49:02.057Z,98754.38
2022-11-16T23:51:28.434Z,98747.28
2022-11-16T23:53:55.689Z,98737.69
2022-11-16T23:56:22.749Z,98734.09
2022-11-16T23:58:49.213Z,98723.72
